Time;durP1;ratioP1;P1;durP2;ratioP2;P2;SDS_P1;SDS_P2;PMS_P1;PMS_P2;Temp;Humidity;BMP_temperature;BMP_pressure;BME280_temperature;BME280_humidity;BME280_pressure;Samples;Min_cycle;Max_cycle;Signal;HPM_P1;HPM_P2
2022/12/07 00:00:54;;;;;;;14.60;8.77;;;;;;;;;;5068628;28;20135;-83
2022/12/07 00:03:20;;;;;;;15.40;9.35;;;;;;;;;;5062228;28;20017;-83
2022/12/07 00:05:46;;;;;;;15.10;8.88;;;;;;;;;;5075732;28;20031;-84
2022/12/07 00:08:12;;;;;;;14.40;7.85;;;;;;;;;;5047015;28;20052;-83
2022/12/07 00:10:41;;;;;;;16.73;8.77;;;;;;;;;;5077399;28;20114;-84
2022/12/07 00:13:07;;;;;;;15.00;9.05;;;;;;;;;;5066941;28;20032;-84
2022/12/07 00:15:35;;;;;;;16.20;9.05;;;;;;;;;;5083811;28;20107;-84
2022/12/07 00:18:01;;;;;;;13.63;9.13;;;;;;;;;;5066847;28;20028;-83
2022/12/07 00:20:27;;;;;;;15.65;8.07;;;;;;;;;;5076911;28;20053;-84
2022/12/07 00:22:53;;;;;;;14.80;8.30;;;;;;;;;;5064736;28;20082;-84
2022/12/07 00:25:20;;;;;;;14.20;9.18;;;;;;;;;;5073266;28;20105;-84
2022/12/07 00:27:46;;;;;;;14.27;8.70;;;;;;;;;;5046447;28;20047;-84
2022/12/07 00:30:13;;;;;;;14.98;8.40;;;;;;;;;;5065418;28;20433;-83
2022/12/07 00:32:39;;;;;;;15.30;9.65;;;;;;;;;;5071556;28;20104;-83
2022/12/07 00:35:05;;;;;;;16.63;9.95;;;;;;;;;;5068675;28;20470;-83
2022/12/07 00:37:31;;;;;;;15.15;10.18;;;;;;;;;;5067588;28;20020;-84
2022/12/07 00:39:57;;;;;;;16.38;9.98;;;;;;;;;;5082223;28;20029;-83
2022/12/07 00:42:23;;;;;;;16.63;9.82;;;;;;;;;;5066493;28;20096;-84
2022/12/07 00:44:49;;;;;;;15.10;8.85;;;;;;;;;;5066720;28;20024;-84
2022/12/07 00:47:15;;;;;;;15.00;8.73;;;;;;;;;;5064553;28;20031;-83
2022/12/07 00:49:40;;;;;;;15.88;8.90;;;;;;;;;;5064515;28;20029;-84
2022/12/07 00:52:07;;;;;;;16.92;9.77;;;;;;;;;;5067098;28;20071;-84
2022/12/07 00:54:33;;;;;;;16.48;8.80;;;;;;;;;;5046294;28;20048;-83
2022/12/07 00:56:59;;;;;;;16.13;9.55;;;;;;;;;;5063848;28;20037;-84
2022/12/07 00:59:25;;;;;;;16.40;9.43;;;;;;;;;;5046851;28;20040;-84
2022/12/07 01:01:51;;;;;;;15.27;9.23;;;;;;;;;;5049733;28;20055;-84
2022/12/07 01:04:17;;;;;;;19.05;10.57;;;;;;;;;;5046527;28;20043;-84
2022/12/07 01:06:43;;;;;;;16.65;10.15;;;;;;;;;;5064992;28;20025;-83
2022/12/07 01:09:09;;;;;;;17.90;11.25;;;;;;;;;;5046849;28;20053;-84
2022/12/07 01:11:35;;;;;;;17.95;10.25;;;;;;;;;;5057133;28;20036;-84
2022/12/07 01:14:01;;;;;;;15.02;8.90;;;;;;;;;;5042514;28;20363;-83
2022/12/07 01:16:28;;;;;;;20.33;11.45;;;;;;;;;;5060958;28;20036;-83
2022/12/07 01:18:56;;;;;;;18.17;11.02;;;;;;;;;;5043268;28;20017;-85
2022/12/07 01:21:29;;;;;;;17.45;10.52;;;;;;;;;;5069846;28;20052;-84
2022/12/07 01:23:57;;;;;;;17.83;10.32;;;;;;;;;;5080558;28;20024;-84
2022/12/07 01:26:24;;;;;;;18.35;10.15;;;;;;;;;;5062678;28;20031;-84
2022/12/07 01:28:50;;;;;;;18.60;10.02;;;;;;;;;;5050978;28;20033;-83
2022/12/07 01:31:18;;;;;;;17.75;10.18;;;;;;;;;;5072732;28;20108;-83
2022/12/07 01:33:46;;;;;;;19.08;10.93;;;;;;;;;;5080871;28;20043;-83
2022/12/07 01:36:41;;;;;;;18.70;10.32;;;;;;;;;;5061955;28;20037;-83
2022/12/07 01:39:07;;;;;;;18.85;11.27;;;;;;;;;;4981872;28;20035;-83
2022/12/07 01:41:35;;;;;;;18.58;10.35;;;;;;;;;;5012493;28;20034;-84
2022/12/07 01:44:07;;;;;;;20.80;11.88;;;;;;;;;;5004072;28;20409;-84
2022/12/07 01:46:33;;;;;;;18.05;10.98;;;;;;;;;;5014235;28;20050;-84
2022/12/07 01:48:59;;;;;;;19.70;11.55;;;;;;;;;;4999871;28;20536;-84
2022/12/07 01:51:26;;;;;;;19.85;11.45;;;;;;;;;;5002483;28;20034;-85
2022/12/07 01:53:52;;;;;;;18.38;10.05;;;;;;;;;;5009458;28;20116;-84
2022/12/07 01:56:20;;;;;;;17.50;10.65;;;;;;;;;;5018110;28;20128;-84
2022/12/07 01:58:46;;;;;;;20.77;10.60;;;;;;;;;;5001489;28;20034;-84
2022/12/07 02:01:12;;;;;;;18.80;10.13;;;;;;;;;;5017842;28;20040;-83
2022/12/07 02:03:39;;;;;;;18.52;10.10;;;;;;;;;;5001833;28;20038;-84
2022/12/07 02:06:07;;;;;;;17.10;10.95;;;;;;;;;;5001842;28;20117;-84
2022/12/07 02:08:35;;;;;;;16.60;11.38;;;;;;;;;;5001725;28;20038;-83
2022/12/07 02:11:03;;;;;;;19.40;10.23;;;;;;;;;;5016474;28;20073;-84
2022/12/07 02:13:30;;;;;;;18.38;10.45;;;;;;;;;;4995011;28;20049;-84
2022/12/07 02:16:10;;;;;;;19.17;10.93;;;;;;;;;;5037104;28;20048;-84
2022/12/07 02:18:45;;;;;;;19.58;10.60;;;;;;;;;;5041389;28;20047;-84
2022/12/07 02:21:32;;;;;;;19.77;10.85;;;;;;;;;;5073146;28;20074;-84
2022/12/07 02:24:03;;;;;;;19.92;11.18;;;;;;;;;;5075651;28;20025;-84
2022/12/07 02:26:39;;;;;;;19.07;11.30;;;;;;;;;;5048410;28;20031;-84
2022/12/07 02:29:26;;;;;;;16.98;9.60;;;;;;;;;;5059779;28;20483;-84
2022/12/07 02:32:06;;;;;;;18.20;10.73;;;;;;;;;;5062337;28;20032;-84
2022/12/07 02:34:36;;;;;;;17.73;10.52;;;;;;;;;;5065683;28;20051;-84
2022/12/07 02:37:05;;;;;;;17.92;10.18;;;;;;;;;;5061877;28;20079;-84
2022/12/07 02:39:46;;;;;;;17.08;10.00;;;;;;;;;;5064383;28;20052;-85
2022/12/07 02:42:20;;;;;;;18.48;10.32;;;;;;;;;;5074926;28;20056;-84
2022/12/07 02:44:47;;;;;;;17.75;10.43;;;;;;;;;;5078837;28;20024;-84
2022/12/07 02:47:14;;;;;;;19.52;11.25;;;;;;;;;;5061434;28;20044;-84
2022/12/07 02:49:41;;;;;;;18.13;10.75;;;;;;;;;;5058582;28;20032;-84
2022/12/07 02:52:07;;;;;;;18.10;11.20;;;;;;;;;;5075392;28;20017;-84
2022/12/07 02:54:33;;;;;;;18.65;9.75;;;;;;;;;;5057801;28;20272;-84
2022/12/07 02:56:59;;;;;;;18.60;11.80;;;;;;;;;;5061463;28;20031;-84
2022/12/07 02:59:41;;;;;;;18.48;9.98;;;;;;;;;;5060378;28;20086;-83
2022/12/07 03:02:25;;;;;;;17.10;10.52;;;;;;;;;;5074437;28;20390;-84
2022/12/07 03:04:54;;;;;;;17.50;10.15;;;;;;;;;;5061208;28;20071;-84
2022/12/07 03:07:20;;;;;;;15.68;10.77;;;;;;;;;;5059444;28;20028;-84
2022/12/07 03:10:06;;;;;;;20.35;11.43;;;;;;;;;;5063816;28;20032;-83
2022/12/07 03:12:36;;;;;;;18.10;10.60;;;;;;;;;;5043710;28;20060;-83
2022/12/07 03:15:12;;;;;;;20.42;10.73;;;;;;;;;;5044043;28;20024;-84
2022/12/07 03:17:41;;;;;;;16.70;10.13;;;;;;;;;;5059093;28;20032;-84
2022/12/07 03:20:10;;;;;;;19.92;10.68;;;;;;;;;;5041362;28;20025;-84
2022/12/07 03:22:38;;;;;;;17.08;10.35;;;;;;;;;;5058254;28;20467;-84
2022/12/07 03:25:06;;;;;;;19.98;11.38;;;;;;;;;;5061880;28;20060;-84
2022/12/07 03:27:34;;;;;;;19.30;10.88;;;;;;;;;;5077471;28;20029;-84
2022/12/07 03:30:02;;;;;;;17.88;9.73;;;;;;;;;;5048073;28;20025;-85
2022/12/07 03:32:37;;;;;;;18.83;10.73;;;;;;;;;;5041069;28;20025;-84
2022/12/07 03:35:02;;;;;;;17.52;9.90;;;;;;;;;;5040791;28;20029;-84
2022/12/07 03:37:34;;;;;;;17.55;9.63;;;;;;;;;;5040399;28;20036;-84
2022/12/07 03:40:18;;;;;;;17.08;10.60;;;;;;;;;;5060237;28;20040;-84
2022/12/07 03:42:44;;;;;;;16.30;10.45;;;;;;;;;;5060138;28;20024;-83
2022/12/07 03:45:11;;;;;;;17.40;10.25;;;;;;;;;;5077712;28;20041;-83
2022/12/07 03:47:49;;;;;;;17.40;10.43;;;;;;;;;;5078570;28;20031;-84
2022/12/07 03:50:28;;;;;;;15.18;9.32;;;;;;;;;;5078250;28;20013;-84
2022/12/07 03:52:57;;;;;;;14.60;9.30;;;;;;;;;;5053590;28;20033;-84
2022/12/07 03:55:23;;;;;;;18.48;9.82;;;;;;;;;;5060372;28;20017;-83
2022/12/07 03:57:50;;;;;;;16.88;10.07;;;;;;;;;;5059681;28;20029;-83
2022/12/07 04:00:16;;;;;;;17.90;9.73;;;;;;;;;;5059545;28;20043;-84
2022/12/07 04:02:43;;;;;;;17.17;9.13;;;;;;;;;;5077883;28;20112;-83
2022/12/07 04:05:11;;;;;;;18.30;10.50;;;;;;;;;;5059261;28;20092;-84
2022/12/07 04:07:37;;;;;;;18.27;10.48;;;;;;;;;;5066294;28;20036;-84
2022/12/07 04:10:03;;;;;;;20.23;9.57;;;;;;;;;;5067304;28;20021;-84
2022/12/07 04:12:29;;;;;;;17.98;9.73;;;;;;;;;;5062725;28;20032;-84
2022/12/07 04:14:55;;;;;;;15.32;9.52;;;;;;;;;;5078068;28;20029;-84
2022/12/07 04:17:21;;;;;;;17.58;10.07;;;;;;;;;;5077964;28;20051;-83
2022/12/07 04:19:47;;;;;;;17.00;9.70;;;;;;;;;;5073823;28;20064;-84
2022/12/07 04:22:13;;;;;;;17.67;10.85;;;;;;;;;;5044415;28;20052;-84
2022/12/07 04:24:39;;;;;;;16.88;9.77;;;;;;;;;;5046908;28;20079;-83
2022/12/07 04:27:05;;;;;;;16.80;10.23;;;;;;;;;;5057331;28;20024;-83
2022/12/07 04:29:31;;;;;;;15.38;8.73;;;;;;;;;;5054315;28;20052;-83
2022/12/07 04:31:57;;;;;;;16.55;9.60;;;;;;;;;;5067613;28;20055;-83
2022/12/07 04:34:23;;;;;;;19.92;9.80;;;;;;;;;;5077092;28;20116;-82
2022/12/07 04:36:49;;;;;;;17.60;10.23;;;;;;;;;;5056723;28;20040;-83
2022/12/07 04:39:23;;;;;;;16.90;9.82;;;;;;;;;;5059996;28;20033;-83
2022/12/07 04:41:49;;;;;;;17.58;9.98;;;;;;;;;;5076922;28;20082;-83
2022/12/07 04:44:16;;;;;;;17.83;9.23;;;;;;;;;;5078760;28;20455;-83
2022/12/07 04:46:42;;;;;;;17.42;10.27;;;;;;;;;;5075183;28;20051;-83
2022/12/07 04:49:08;;;;;;;16.70;9.95;;;;;;;;;;5053108;28;20379;-83
2022/12/07 04:51:34;;;;;;;17.20;9.23;;;;;;;;;;5068261;28;20029;-83
2022/12/07 04:54:00;;;;;;;19.55;10.88;;;;;;;;;;5061872;28;20052;-83
2022/12/07 04:56:26;;;;;;;16.13;9.18;;;;;;;;;;5048227;28;20090;-84
2022/12/07 04:58:54;;;;;;;16.73;10.18;;;;;;;;;;5072353;28;20483;-83
2022/12/07 05:01:21;;;;;;;18.10;10.25;;;;;;;;;;5074537;28;20025;-83
2022/12/07 05:03:47;;;;;;;34.33;18.98;;;;;;;;;;5062788;28;20073;-84
2022/12/07 05:06:13;;;;;;;28.10;17.23;;;;;;;;;;5068605;28;20038;-84
2022/12/07 05:08:40;;;;;;;21.40;10.90;;;;;;;;;;5047443;28;20033;-83
2022/12/07 05:11:06;;;;;;;16.55;9.10;;;;;;;;;;5047905;28;20032;-84
2022/12/07 05:13:33;;;;;;;18.80;10.02;;;;;;;;;;5060319;28;20031;-84
2022/12/07 05:15:59;;;;;;;17.60;10.27;;;;;;;;;;5044801;28;20128;-84
2022/12/07 05:18:25;;;;;;;20.15;10.90;;;;;;;;;;5049273;28;20434;-84
2022/12/07 05:20:51;;;;;;;18.98;10.30;;;;;;;;;;5060725;28;20023;-83
2022/12/07 05:23:17;;;;;;;18.30;9.48;;;;;;;;;;5060730;28;20103;-84
2022/12/07 05:25:44;;;;;;;18.83;10.68;;;;;;;;;;5060958;28;20040;-84
2022/12/07 05:28:10;;;;;;;15.68;9.80;;;;;;;;;;5045366;28;20035;-84
2022/12/07 05:30:36;;;;;;;16.52;9.60;;;;;;;;;;5057452;28;20115;-85
2022/12/07 05:33:02;;;;;;;14.63;8.77;;;;;;;;;;5053465;28;20462;-84
2022/12/07 05:35:28;;;;;;;14.20;8.90;;;;;;;;;;5052888;28;20053;-86
2022/12/07 05:37:55;;;;;;;16.10;9.43;;;;;;;;;;5078853;28;20060;-84
2022/12/07 05:40:21;;;;;;;17.55;9.93;;;;;;;;;;5078516;28;20489;-84
2022/12/07 05:42:48;;;;;;;14.63;8.43;;;;;;;;;;5066494;28;20025;-84
2022/12/07 05:45:14;;;;;;;15.45;9.80;;;;;;;;;;5065137;28;20079;-84
2022/12/07 05:47:41;;;;;;;15.65;9.07;;;;;;;;;;5077596;28;20486;-83
2022/12/07 05:50:07;;;;;;;15.30;8.77;;;;;;;;;;5061425;28;20083;-83
2022/12/07 05:52:34;;;;;;;13.45;9.18;;;;;;;;;;5059263;28;20399;-83
2022/12/07 05:55:00;;;;;;;15.80;10.07;;;;;;;;;;5063407;28;20093;-84
2022/12/07 05:57:26;;;;;;;15.73;9.27;;;;;;;;;;5063341;28;20028;-83
2022/12/07 05:59:52;;;;;;;16.02;9.48;;;;;;;;;;5045300;28;20032;-83
2022/12/07 06:02:18;;;;;;;14.90;8.80;;;;;;;;;;5064642;28;20025;-84
2022/12/07 06:04:46;;;;;;;15.85;9.80;;;;;;;;;;5064448;28;20035;-84
2022/12/07 06:07:13;;;;;;;25.08;16.63;;;;;;;;;;5046112;28;20033;-83
2022/12/07 06:09:39;;;;;;;23.38;13.43;;;;;;;;;;5083036;28;20043;-83
2022/12/07 06:14:50;;;;;;;21.60;12.52;;;;;;;;;;5083823;28;20123;-84
2022/12/07 06:17:17;;;;;;;18.48;11.90;;;;;;;;;;5070257;28;20090;-84
2022/12/07 06:19:43;;;;;;;20.38;12.48;;;;;;;;;;5081236;28;20032;-84
2022/12/07 06:22:11;;;;;;;21.33;11.75;;;;;;;;;;5065003;28;20388;-83
2022/12/07 06:24:37;;;;;;;19.23;11.40;;;;;;;;;;5064892;28;20021;-84
2022/12/07 06:27:05;;;;;;;18.02;12.20;;;;;;;;;;5078841;28;20020;-84
2022/12/07 06:29:31;;;;;;;16.58;10.20;;;;;;;;;;5054913;28;20028;-84
2022/12/07 06:31:57;;;;;;;15.05;9.13;;;;;;;;;;5070059;28;20068;-84
2022/12/07 06:34:24;;;;;;;12.30;8.00;;;;;;;;;;5079664;28;20074;-84
2022/12/07 06:36:51;;;;;;;16.30;8.50;;;;;;;;;;5064229;28;20035;-84
2022/12/07 06:39:24;;;;;;;13.55;7.68;;;;;;;;;;5083438;28;20016;-84
2022/12/07 06:41:51;;;;;;;14.90;8.32;;;;;;;;;;5083530;28;20024;-84
2022/12/07 06:44:17;;;;;;;12.35;7.60;;;;;;;;;;5081654;28;20017;-84
2022/12/07 06:46:43;;;;;;;11.75;7.50;;;;;;;;;;5060892;28;20433;-84
2022/12/07 06:49:10;;;;;;;13.73;6.90;;;;;;;;;;5062645;28;20020;-83
2022/12/07 06:51:40;;;;;;;14.38;7.68;;;;;;;;;;5053238;28;20104;-84
2022/12/07 06:54:06;;;;;;;12.88;7.07;;;;;;;;;;5053595;28;20032;-83
2022/12/07 06:56:32;;;;;;;11.57;6.43;;;;;;;;;;5062458;28;20024;-83
2022/12/07 06:58:58;;;;;;;13.23;8.00;;;;;;;;;;5063365;28;20070;-83
2022/12/07 07:01:24;;;;;;;14.65;8.27;;;;;;;;;;5067510;28;20074;-83
2022/12/07 07:03:50;;;;;;;23.80;9.45;;;;;;;;;;5050081;28;20100;-84
2022/12/07 07:06:16;;;;;;;15.15;8.57;;;;;;;;;;5081616;28;20092;-84
2022/12/07 07:08:43;;;;;;;15.10;8.45;;;;;;;;;;5061845;28;20040;-82
2022/12/07 07:11:09;;;;;;;20.27;8.93;;;;;;;;;;5079772;28;20040;-83
2022/12/07 07:13:36;;;;;;;11.63;6.70;;;;;;;;;;5060575;28;20033;-83
2022/12/07 07:16:02;;;;;;;14.00;7.00;;;;;;;;;;5060898;28;20083;-83
2022/12/07 07:18:28;;;;;;;23.08;7.18;;;;;;;;;;5065219;28;20498;-84
2022/12/07 07:20:57;;;;;;;12.50;6.53;;;;;;;;;;5057730;28;20494;-84
2022/12/07 07:23:23;;;;;;;15.40;6.85;;;;;;;;;;5070808;28;20035;-83
2022/12/07 07:25:49;;;;;;;17.33;7.63;;;;;;;;;;5084345;28;20036;-84
2022/12/07 07:28:15;;;;;;;14.35;8.63;;;;;;;;;;5071339;28;20029;-84
2022/12/07 07:30:41;;;;;;;13.27;7.85;;;;;;;;;;5081748;28;20090;-83
2022/12/07 07:33:08;;;;;;;16.48;8.60;;;;;;;;;;5073326;28;20028;-84
2022/12/07 07:35:34;;;;;;;15.38;8.25;;;;;;;;;;5078185;28;20361;-83
2022/12/07 07:38:01;;;;;;;16.25;8.57;;;;;;;;;;5057711;28;20021;-84
2022/12/07 07:40:29;;;;;;;15.60;8.45;;;;;;;;;;5072411;28;20055;-83
2022/12/07 07:42:55;;;;;;;14.95;8.45;;;;;;;;;;5051551;28;20017;-83
2022/12/07 07:45:22;;;;;;;16.20;8.48;;;;;;;;;;5071051;28;20048;-84
2022/12/07 07:47:53;;;;;;;13.82;7.70;;;;;;;;;;5068585;28;20020;-83
2022/12/07 07:50:20;;;;;;;11.23;6.70;;;;;;;;;;5063412;28;20050;-83
2022/12/07 07:52:46;;;;;;;14.15;6.45;;;;;;;;;;5081678;28;20024;-83
2022/12/07 07:55:12;;;;;;;13.45;6.78;;;;;;;;;;5079021;28;20056;-83
2022/12/07 07:57:39;;;;;;;13.68;7.10;;;;;;;;;;5068325;28;20505;-83
2022/12/07 08:00:06;;;;;;;18.30;7.97;;;;;;;;;;5047692;28;20035;-83
2022/12/07 08:02:32;;;;;;;17.88;7.35;;;;;;;;;;5061048;28;20027;-83
2022/12/07 08:04:59;;;;;;;12.38;7.07;;;;;;;;;;5054454;28;20394;-83
2022/12/07 08:07:25;;;;;;;11.82;6.43;;;;;;;;;;5058240;28;20048;-83
2022/12/07 08:09:51;;;;;;;12.00;7.32;;;;;;;;;;5061801;28;20020;-83
2022/12/07 08:12:17;;;;;;;12.40;6.80;;;;;;;;;;5061284;28;20035;-82
2022/12/07 08:14:43;;;;;;;15.05;8.05;;;;;;;;;;5061670;28;20466;-83
2022/12/07 08:17:09;;;;;;;11.75;7.07;;;;;;;;;;5062365;28;20092;-83
2022/12/07 08:19:35;;;;;;;11.50;6.15;;;;;;;;;;5067256;28;20080;-83
2022/12/07 08:22:01;;;;;;;12.13;7.75;;;;;;;;;;5063607;28;20051;-83
2022/12/07 08:24:27;;;;;;;12.23;6.93;;;;;;;;;;5083658;28;20021;-83
2022/12/07 08:26:53;;;;;;;15.13;9.15;;;;;;;;;;5070845;28;20106;-83
2022/12/07 08:29:20;;;;;;;13.60;6.35;;;;;;;;;;5072850;28;20035;-83
2022/12/07 08:31:46;;;;;;;10.88;5.63;;;;;;;;;;5068774;28;20466;-83
2022/12/07 08:34:12;;;;;;;11.50;5.57;;;;;;;;;;5045135;28;20111;-84
2022/12/07 08:36:38;;;;;;;15.20;5.80;;;;;;;;;;5064714;28;20036;-83
2022/12/07 08:39:04;;;;;;;18.67;9.63;;;;;;;;;;5064863;28;20025;-83
2022/12/07 08:41:30;;;;;;;12.55;7.22;;;;;;;;;;5046494;28;20017;-83
2022/12/07 08:43:56;;;;;;;13.35;5.03;;;;;;;;;;5045609;28;20283;-84
2022/12/07 08:46:45;;;;;;;9.48;5.20;;;;;;;;;;5043327;28;20049;-83
2022/12/07 08:49:13;;;;;;;10.20;4.30;;;;;;;;;;5061028;28;20387;-83
2022/12/07 08:51:40;;;;;;;10.38;6.28;;;;;;;;;;5084150;28;20028;-83
2022/12/07 08:54:08;;;;;;;14.07;9.45;;;;;;;;;;5064639;28;20135;-82
2022/12/07 08:56:34;;;;;;;14.52;9.10;;;;;;;;;;5082830;28;20036;-82
2022/12/07 08:59:00;;;;;;;8.57;4.25;;;;;;;;;;5052174;28;20039;-83
2022/12/07 09:01:26;;;;;;;8.82;5.15;;;;;;;;;;5066089;28;20017;-82
2022/12/07 09:03:53;;;;;;;8.23;4.32;;;;;;;;;;5062075;28;20032;-83
2022/12/07 09:06:19;;;;;;;9.68;5.63;;;;;;;;;;5061565;28;20053;-84
2022/12/07 09:08:48;;;;;;;10.18;5.47;;;;;;;;;;5062581;28;20031;-82
2022/12/07 09:11:14;;;;;;;8.23;4.32;;;;;;;;;;5062359;28;20017;-83
2022/12/07 09:13:39;;;;;;;9.80;4.57;;;;;;;;;;5049634;28;20096;-83
2022/12/07 09:16:06;;;;;;;8.93;5.47;;;;;;;;;;5065226;28;20112;-83
2022/12/07 09:18:32;;;;;;;10.13;5.40;;;;;;;;;;5081134;28;20021;-83
2022/12/07 09:20:58;;;;;;;9.32;5.35;;;;;;;;;;5064224;28;20023;-84
2022/12/07 09:23:24;;;;;;;12.00;5.88;;;;;;;;;;5083668;28;20104;-83
2022/12/07 09:25:50;;;;;;;16.55;6.35;;;;;;;;;;5067319;28;20055;-83
2022/12/07 09:28:16;;;;;;;10.52;6.43;;;;;;;;;;5081344;28;20056;-84
2022/12/07 09:30:46;;;;;;;12.05;7.15;;;;;;;;;;5067038;28;20155;-83
2022/12/07 09:33:12;;;;;;;10.10;5.22;;;;;;;;;;5043401;28;20028;-83
2022/12/07 09:35:38;;;;;;;10.32;5.63;;;;;;;;;;5043098;28;20052;-83
2022/12/07 09:38:04;;;;;;;8.57;5.18;;;;;;;;;;5060160;28;20040;-84
2022/12/07 09:40:30;;;;;;;10.57;5.38;;;;;;;;;;5060796;28;20518;-83
2022/12/07 09:42:56;;;;;;;9.50;5.28;;;;;;;;;;5047339;28;20021;-83
2022/12/07 09:45:27;;;;;;;8.93;5.13;;;;;;;;;;5060781;28;20045;-83
2022/12/07 09:47:54;;;;;;;7.88;4.53;;;;;;;;;;5061697;28;20032;-83
2022/12/07 09:50:25;;;;;;;7.13;3.72;;;;;;;;;;5042822;28;20368;-83
2022/12/07 09:52:51;;;;;;;7.15;4.00;;;;;;;;;;5059653;28;20048;-84
2022/12/07 09:55:24;;;;;;;8.52;4.35;;;;;;;;;;5062466;28;20021;-84
2022/12/07 09:57:51;;;;;;;8.02;3.95;;;;;;;;;;5063872;28;20040;-83
2022/12/07 10:00:19;;;;;;;9.18;5.20;;;;;;;;;;5045181;28;20021;-83
2022/12/07 10:02:54;;;;;;;7.85;4.40;;;;;;;;;;5062805;28;20079;-84
2022/12/07 10:05:23;;;;;;;9.40;4.90;;;;;;;;;;5059970;28;20380;-84
2022/12/07 10:07:49;;;;;;;10.10;4.80;;;;;;;;;;5060568;28;20029;-83
2022/12/07 10:10:18;;;;;;;7.20;4.10;;;;;;;;;;5059496;28;20028;-83
2022/12/07 10:13:04;;;;;;;8.23;4.20;;;;;;;;;;5060512;28;20025;-83
2022/12/07 10:15:42;;;;;;;7.97;4.22;;;;;;;;;;5041805;28;20112;-84
2022/12/07 10:18:17;;;;;;;5.82;3.38;;;;;;;;;;5059507;28;20025;-83
2022/12/07 10:20:45;;;;;;;6.15;3.55;;;;;;;;;;5041897;28;20021;-84
2022/12/07 10:23:15;;;;;;;6.88;3.78;;;;;;;;;;5062461;28;20024;-83
2022/12/07 10:25:42;;;;;;;7.07;3.95;;;;;;;;;;5045524;28;20031;-83
2022/12/07 10:28:08;;;;;;;6.90;3.13;;;;;;;;;;5058177;28;20024;-83
2022/12/07 10:30:46;;;;;;;9.23;3.63;;;;;;;;;;5060244;28;20066;-84
2022/12/07 10:33:31;;;;;;;7.25;4.18;;;;;;;;;;5064325;28;20029;-85
2022/12/07 10:35:57;;;;;;;12.85;5.07;;;;;;;;;;5041959;28;20029;-84
2022/12/07 10:38:26;;;;;;;7.47;4.03;;;;;;;;;;5040855;28;20025;-83
2022/12/07 10:41:03;;;;;;;7.10;4.05;;;;;;;;;;5050255;28;20091;-84
2022/12/07 10:43:32;;;;;;;6.03;3.55;;;;;;;;;;5099045;28;20050;-85
2022/12/07 10:46:22;;;;;;;7.55;3.70;;;;;;;;;;5062862;28;20132;-84
2022/12/07 10:49:07;;;;;;;9.38;3.67;;;;;;;;;;5078390;28;20028;-84
2022/12/07 10:51:41;;;;;;;6.35;3.92;;;;;;;;;;5060710;28;20040;-84
2022/12/07 10:54:12;;;;;;;6.70;4.30;;;;;;;;;;5057316;28;20063;-85
2022/12/07 10:56:56;;;;;;;6.35;3.72;;;;;;;;;;5041691;28;20112;-86
2022/12/07 10:59:48;;;;;;;6.38;3.53;;;;;;;;;;5042703;28;20149;-85
2022/12/07 11:02:17;;;;;;;7.10;3.50;;;;;;;;;;4984612;28;20035;-84
2022/12/07 11:05:03;;;;;;;7.18;4.32;;;;;;;;;;4954197;29;20035;-83
2022/12/07 11:07:37;;;;;;;8.48;4.38;;;;;;;;;;4948869;28;20031;-85
2022/12/07 11:10:08;;;;;;;7.97;3.92;;;;;;;;;;4955706;28;20062;-82
2022/12/07 11:12:50;;;;;;;6.10;3.30;;;;;;;;;;4983794;28;20031;-84
2022/12/07 11:15:30;;;;;;;7.78;4.15;;;;;;;;;;4950273;28;20023;-84
2022/12/07 11:18:16;;;;;;;6.53;4.10;;;;;;;;;;4965010;28;20090;-84
2022/12/07 11:20:46;;;;;;;7.68;3.42;;;;;;;;;;4972273;28;20042;-84
2022/12/07 11:23:30;;;;;;;6.32;3.50;;;;;;;;;;4961651;28;20062;-84
2022/12/07 11:26:02;;;;;;;6.45;3.33;;;;;;;;;;4978097;28;20098;-84
2022/12/07 11:28:34;;;;;;;7.88;3.58;;;;;;;;;;4961699;28;20094;-85
2022/12/07 11:31:20;;;;;;;7.07;4.15;;;;;;;;;;4960099;28;20158;-84
2022/12/07 11:33:50;;;;;;;6.55;3.50;;;;;;;;;;4964024;28;20057;-83
2022/12/07 11:36:36;;;;;;;6.18;3.25;;;;;;;;;;4958967;28;20027;-84
2022/12/07 11:39:09;;;;;;;7.15;3.83;;;;;;;;;;5016353;28;20051;-82
2022/12/07 11:41:39;;;;;;;6.70;3.95;;;;;;;;;;5064804;28;20024;-82
2022/12/07 11:44:12;;;;;;;8.52;4.15;;;;;;;;;;5069210;28;20811;-83
2022/12/07 11:46:51;;;;;;;8.57;4.20;;;;;;;;;;5066745;28;20098;-82
2022/12/07 11:49:17;;;;;;;7.20;4.35;;;;;;;;;;5075067;28;20038;-82
2022/12/07 11:51:44;;;;;;;7.53;4.75;;;;;;;;;;5085060;28;20016;-84
2022/12/07 11:54:24;;;;;;;6.82;3.88;;;;;;;;;;5074077;28;20031;-83
2022/12/07 11:56:51;;;;;;;6.82;4.00;;;;;;;;;;5045479;28;20040;-83
2022/12/07 11:59:31;;;;;;;8.55;4.28;;;;;;;;;;5046955;28;20021;-84
2022/12/07 12:02:01;;;;;;;7.05;4.35;;;;;;;;;;5056871;28;20025;-82
2022/12/07 12:04:46;;;;;;;7.43;4.70;;;;;;;;;;5058844;28;20035;-84
2022/12/07 12:07:15;;;;;;;6.70;4.10;;;;;;;;;;5065240;28;20036;-83
2022/12/07 12:09:48;;;;;;;7.20;4.10;;;;;;;;;;5084114;28;20044;-83
2022/12/07 12:12:14;;;;;;;7.50;4.30;;;;;;;;;;5043676;28;20025;-83
2022/12/07 12:14:58;;;;;;;7.50;4.07;;;;;;;;;;5059888;28;20048;-84
2022/12/07 12:17:27;;;;;;;7.03;4.00;;;;;;;;;;5067852;28;20029;-84
2022/12/07 12:19:56;;;;;;;10.13;4.45;;;;;;;;;;5062474;28;20021;-83
2022/12/07 12:22:27;;;;;;;8.10;4.40;;;;;;;;;;5053618;28;20406;-84
2022/12/07 12:24:54;;;;;;;9.15;4.10;;;;;;;;;;5047235;28;20025;-83
2022/12/07 12:27:34;;;;;;;6.88;3.90;;;;;;;;;;5051132;28;20402;-83
2022/12/07 12:30:07;;;;;;;7.47;4.45;;;;;;;;;;5072182;28;20033;-83
2022/12/07 12:32:53;;;;;;;7.65;4.38;;;;;;;;;;5075421;28;20162;-84
2022/12/07 12:35:23;;;;;;;7.13;3.85;;;;;;;;;;5057673;28;20039;-84
2022/12/07 12:37:49;;;;;;;8.48;3.97;;;;;;;;;;5078827;28;20024;-84
2022/12/07 12:40:15;;;;;;;6.93;3.72;;;;;;;;;;5063568;28;20021;-83
2022/12/07 12:42:48;;;;;;;6.88;3.72;;;;;;;;;;5063538;28;20021;-83
2022/12/07 12:45:17;;;;;;;6.63;4.00;;;;;;;;;;5066504;28;20593;-85
2022/12/07 12:48:04;;;;;;;7.85;4.05;;;;;;;;;;5078714;28;20025;-83
2022/12/07 12:50:34;;;;;;;7.20;3.72;;;;;;;;;;5063356;28;20029;-84
2022/12/07 12:53:07;;;;;;;6.95;4.03;;;;;;;;;;5082979;28;20059;-84
2022/12/07 12:55:42;;;;;;;6.63;3.72;;;;;;;;;;5083257;28;20017;-83
2022/12/07 12:58:20;;;;;;;8.35;3.90;;;;;;;;;;5047241;28;20057;-83
2022/12/07 13:00:48;;;;;;;7.00;3.85;;;;;;;;;;5044926;28;20052;-83
2022/12/07 13:03:28;;;;;;;10.25;5.22;;;;;;;;;;5044534;28;20021;-83
2022/12/07 13:06:13;;;;;;;8.05;4.35;;;;;;;;;;5063593;28;20037;-85
2022/12/07 13:08:41;;;;;;;7.13;4.05;;;;;;;;;;5045224;28;20033;-85
2022/12/07 13:11:18;;;;;;;7.28;4.00;;;;;;;;;;5066803;28;20041;-84
2022/12/07 13:13:44;;;;;;;6.95;3.70;;;;;;;;;;5059686;28;20055;-82
2022/12/07 13:16:12;;;;;;;7.68;4.22;;;;;;;;;;5076540;28;20558;-83
2022/12/07 13:18:38;;;;;;;7.15;4.00;;;;;;;;;;5084764;28;20040;-83
2022/12/07 13:21:07;;;;;;;8.85;4.70;;;;;;;;;;5066038;28;20025;-83
2022/12/07 13:23:33;;;;;;;7.03;4.00;;;;;;;;;;5047881;28;20017;-84
2022/12/07 13:26:06;;;;;;;8.07;4.22;;;;;;;;;;5065495;28;20028;-83
2022/12/07 13:28:42;;;;;;;8.15;4.90;;;;;;;;;;5047410;28;20608;-83
2022/12/07 13:31:15;;;;;;;9.88;4.28;;;;;;;;;;5065654;28;20028;-83
2022/12/07 13:33:43;;;;;;;7.93;4.35;;;;;;;;;;5050058;28;20056;-83
2022/12/07 13:36:18;;;;;;;9.30;4.68;;;;;;;;;;5049900;28;20028;-83
2022/12/07 13:38:49;;;;;;;6.80;3.55;;;;;;;;;;5048793;28;20025;-83
2022/12/07 13:41:17;;;;;;;8.27;4.07;;;;;;;;;;5063799;28;20029;-83
2022/12/07 13:43:54;;;;;;;6.97;4.00;;;;;;;;;;5085021;28;20024;-84
2022/12/07 13:46:25;;;;;;;7.82;4.45;;;;;;;;;;5068279;28;20052;-83
2022/12/07 13:48:51;;;;;;;7.47;3.67;;;;;;;;;;5086593;28;20052;-83
2022/12/07 13:51:20;;;;;;;8.07;4.05;;;;;;;;;;5077200;28;20049;-83
2022/12/07 13:53:50;;;;;;;6.78;3.50;;;;;;;;;;5048208;28;20021;-84
2022/12/07 13:56:17;;;;;;;10.20;3.70;;;;;;;;;;5047345;28;20033;-83
2022/12/07 13:58:43;;;;;;;7.10;3.83;;;;;;;;;;5063005;28;20024;-83
2022/12/07 14:01:09;;;;;;;6.78;3.70;;;;;;;;;;5067779;28;20027;-84
2022/12/07 14:03:36;;;;;;;7.75;3.92;;;;;;;;;;5067073;28;20043;-83
2022/12/07 14:06:05;;;;;;;8.23;4.43;;;;;;;;;;5076979;28;20024;-82
2022/12/07 14:08:31;;;;;;;7.13;4.25;;;;;;;;;;5076352;28;20047;-83
2022/12/07 14:10:58;;;;;;;8.65;4.53;;;;;;;;;;5065158;28;20029;-83
2022/12/07 14:13:27;;;;;;;6.60;4.20;;;;;;;;;;5067030;28;20051;-83
2022/12/07 14:15:53;;;;;;;7.72;4.28;;;;;;;;;;5070426;28;20056;-84
2022/12/07 14:18:39;;;;;;;8.82;4.40;;;;;;;;;;5067325;28;20276;-83
2022/12/07 14:21:05;;;;;;;10.35;4.75;;;;;;;;;;5055692;28;20043;-84
2022/12/07 14:23:31;;;;;;;8.07;4.30;;;;;;;;;;5064171;28;20022;-83
2022/12/07 14:26:13;;;;;;;9.75;5.57;;;;;;;;;;5056585;28;20134;-83
2022/12/07 14:28:39;;;;;;;9.90;5.00;;;;;;;;;;5067473;28;20017;-83
2022/12/07 14:31:14;;;;;;;9.77;4.93;;;;;;;;;;5066500;28;20096;-82
2022/12/07 14:33:40;;;;;;;7.35;4.10;;;;;;;;;;5066452;28;20028;-83
2022/12/07 14:36:09;;;;;;;8.80;5.15;;;;;;;;;;5047732;28;20104;-83
2022/12/07 14:38:35;;;;;;;7.57;3.95;;;;;;;;;;5045564;28;20013;-83
2022/12/07 14:44:12;;;;;;;9.98;4.60;;;;;;;;;;4983498;28;20040;-83
2022/12/07 14:46:38;;;;;;;;;;;;;;;;;;4982780;28;20099;-83
2022/12/07 14:49:05;;;;;;;8.02;3.78;;;;;;;;;;4987094;28;19949;-83